createdAt,value
2022-12-09T00:01:23.731Z,11.85
2022-12-09T00:03:27.189Z,11.35
2022-12-09T00:05:31.882Z,11.98
2022-12-09T00:07:38.848Z,12.00
2022-12-09T00:09:42.218Z,11.68
2022-12-09T00:11:45.760Z,10.63
2022-12-09T00:13:50.205Z,11.85
2022-12-09T00:15:53.503Z,11.75
2022-12-09T00:17:56.760Z,10.05
2022-12-09T00:20:00.134Z,10.15
2022-12-09T00:22:04.938Z,10.68
2022-12-09T00:24:10.813Z,10.43
2022-12-09T00:26:14.831Z,10.07
2022-12-09T00:28:18.036Z,10.23
2022-12-09T00:30:21.264Z,10.02
2022-12-09T00:32:25.857Z,8.77
2022-12-09T00:34:29.122Z,8.90
2022-12-09T00:36:32.349Z,9.30
2022-12-09T00:38:37.363Z,9.25
2022-12-09T00:40:40.479Z,8.88
2022-12-09T00:42:43.666Z,9.90
2022-12-09T00:44:46.985Z,9.43
2022-12-09T00:46:50.296Z,9.50
2022-12-09T00:48:53.784Z,9.55
2022-12-09T00:50:57.266Z,9.77
2022-12-09T00:53:00.663Z,9.32
2022-12-09T00:55:06.054Z,8.85
2022-12-09T00:57:09.328Z,9.20
2022-12-09T00:59:12.514Z,9.20
2022-12-09T01:01:19.672Z,7.80
2022-12-09T01:03:23.239Z,7.45
2022-12-09T01:05:26.755Z,7.60
2022-12-09T01:07:29.891Z,6.97
2022-12-09T01:09:35.507Z,6.57
2022-12-09T01:11:40.173Z,6.18
2022-12-09T01:13:43.482Z,7.38
2022-12-09T01:15:46.863Z,6.85
2022-12-09T01:17:50.237Z,7.10
2022-12-09T01:19:53.661Z,7.15
2022-12-09T01:21:57.649Z,7.60
2022-12-09T01:24:01.923Z,7.28
2022-12-09T01:26:06.683Z,7.07
2022-12-09T01:28:12.041Z,6.60
2022-12-09T01:30:16.537Z,6.93
2022-12-09T01:32:19.808Z,6.90
2022-12-09T01:34:23.185Z,6.57
2022-12-09T01:36:31.700Z,7.53
2022-12-09T01:38:35.378Z,7.63
2022-12-09T01:40:38.672Z,7.35
2022-12-09T01:42:42.478Z,6.88
2022-12-09T01:45:39.581Z,8.18
2022-12-09T01:47:42.974Z,8.13
2022-12-09T01:49:48.189Z,8.15
2022-12-09T01:52:02.829Z,9.25
2022-12-09T01:54:07.608Z,9.02
2022-12-09T01:56:16.445Z,8.90
2022-12-09T01:58:20.803Z,9.15
2022-12-09T02:00:24.716Z,9.52
2022-12-09T02:02:30.643Z,9.77
2022-12-09T02:04:39.241Z,8.88
2022-12-09T02:06:43.555Z,8.73
2022-12-09T02:08:50.788Z,8.18
2022-12-09T02:11:08.456Z,8.13
2022-12-09T02:13:26.895Z,7.88
2022-12-09T02:15:37.592Z,13.60
2022-12-09T02:17:50.343Z,12.88
2022-12-09T02:20:04.041Z,11.65
2022-12-09T02:22:09.681Z,16.58
2022-12-09T02:24:19.565Z,8.85
2022-12-09T02:26:33.165Z,8.18
2022-12-09T02:28:56.475Z,7.70
2022-12-09T02:31:11.450Z,8.35
2022-12-09T02:33:36.872Z,7.80
2022-12-09T02:35:50.022Z,8.07
2022-12-09T02:38:00.215Z,7.78
2022-12-09T02:40:11.188Z,7.88
2022-12-09T02:42:21.251Z,7.15
2022-12-09T02:44:26.837Z,7.13
2022-12-09T02:46:31.686Z,7.40
2022-12-09T02:48:38.777Z,7.40
2022-12-09T02:50:45.719Z,7.10
2022-12-09T02:52:52.122Z,7.60
2022-12-09T02:54:56.240Z,7.30
2022-12-09T02:57:08.164Z,6.75
2022-12-09T02:59:12.852Z,6.82
2022-12-09T03:01:24.929Z,6.50
2022-12-09T03:03:32.973Z,6.78
2022-12-09T03:05:47.881Z,7.40
2022-12-09T03:08:03.407Z,6.90
2022-12-09T03:10:14.011Z,6.95
2022-12-09T03:12:21.467Z,6.50
2022-12-09T03:14:30.923Z,6.82
2022-12-09T03:16:37.943Z,6.28
2022-12-09T03:18:47.199Z,7.63
2022-12-09T03:20:51.979Z,10.13
2022-12-09T03:23:01.411Z,6.82
2022-12-09T03:25:09.839Z,6.47
2022-12-09T03:27:18.722Z,6.78
2022-12-09T03:29:26.288Z,6.47
2022-12-09T03:31:32.560Z,6.60
2022-12-09T03:33:35.860Z,6.95
2022-12-09T03:35:44.665Z,7.10
2022-12-09T03:37:51.298Z,6.65
2022-12-09T03:39:56.158Z,7.05
2022-12-09T03:42:03.613Z,7.68
2022-12-09T03:44:14.554Z,7.30
2022-12-09T03:46:17.810Z,7.10
2022-12-09T03:48:21.501Z,7.82
2022-12-09T03:50:28.049Z,7.80
2022-12-09T03:52:39.096Z,9.18
2022-12-09T03:54:46.677Z,8.18
2022-12-09T03:56:54.437Z,8.23
2022-12-09T03:59:02.064Z,7.82
2022-12-09T04:01:07.085Z,8.40
2022-12-09T04:03:10.837Z,7.75
2022-12-09T04:05:14.795Z,7.93
2022-12-09T04:07:19.041Z,7.95
2022-12-09T04:09:23.202Z,7.28
2022-12-09T04:11:28.307Z,6.20
2022-12-09T04:13:31.981Z,7.70
2022-12-09T04:15:35.331Z,7.43
2022-12-09T04:17:38.631Z,6.55
2022-12-09T04:19:41.986Z,7.80
2022-12-09T04:21:45.395Z,6.85
2022-12-09T04:23:48.669Z,6.85
2022-12-09T04:25:51.900Z,7.20
2022-12-09T04:27:56.464Z,7.57
2022-12-09T04:29:59.902Z,8.30
2022-12-09T04:32:03.606Z,7.38
2022-12-09T04:34:09.841Z,7.50
2022-12-09T04:36:17.426Z,7.55
2022-12-09T04:38:20.777Z,7.45
2022-12-09T04:40:24.775Z,7.82
2022-12-09T04:42:29.923Z,7.20
2022-12-09T04:44:34.475Z,7.63
2022-12-09T04:46:37.752Z,7.47
2022-12-09T04:48:41.848Z,7.43
2022-12-09T04:50:45.451Z,6.65
2022-12-09T04:52:48.896Z,7.60
2022-12-09T04:54:52.225Z,6.80
2022-12-09T04:56:55.739Z,6.80
2022-12-09T04:58:59.306Z,6.57
2022-12-09T05:01:08.609Z,6.70
2022-12-09T05:03:12.328Z,6.70
2022-12-09T05:05:15.953Z,6.80
2022-12-09T05:07:19.568Z,6.47
2022-12-09T05:09:23.142Z,6.30
2022-12-09T05:11:26.919Z,6.32
2022-12-09T05:13:31.472Z,6.22
2022-12-09T05:15:34.969Z,6.90
2022-12-09T05:17:39.914Z,6.30
2022-12-09T05:19:43.265Z,5.85
2022-12-09T05:21:46.563Z,6.32
2022-12-09T05:23:50.425Z,6.13
2022-12-09T05:25:55.556Z,6.65
2022-12-09T05:27:59.452Z,5.88
2022-12-09T05:30:02.777Z,6.22
2022-12-09T05:32:06.459Z,6.22
2022-12-09T05:34:11.580Z,6.25
2022-12-09T05:36:18.856Z,6.70
2022-12-09T05:38:24.683Z,6.30
2022-12-09T05:40:29.208Z,6.20
2022-12-09T05:42:36.493Z,6.28
2022-12-09T05:44:44.405Z,6.50
2022-12-09T05:46:47.799Z,6.68
2022-12-09T05:48:51.600Z,6.80
2022-12-09T05:51:00.658Z,6.50
2022-12-09T05:53:04.523Z,6.88
2022-12-09T05:55:11.022Z,7.38
2022-12-09T05:57:14.427Z,6.78
2022-12-09T05:59:17.892Z,6.50
2022-12-09T06:01:21.436Z,6.35
2022-12-09T06:03:25.572Z,7.13
2022-12-09T06:05:29.182Z,8.93
2022-12-09T06:07:34.877Z,10.13
2022-12-09T06:09:38.495Z,11.20
2022-12-09T06:11:42.461Z,11.15
2022-12-09T06:13:46.592Z,8.80
2022-12-09T06:15:49.996Z,9.15
2022-12-09T06:17:53.756Z,7.60
2022-12-09T06:19:57.106Z,7.80
2022-12-09T06:22:00.758Z,8.20
2022-12-09T06:24:07.415Z,7.45
2022-12-09T06:26:18.425Z,7.60
2022-12-09T06:28:22.130Z,7.70
2022-12-09T06:30:25.405Z,7.10
2022-12-09T06:32:28.700Z,8.13
2022-12-09T06:34:32.221Z,7.45
2022-12-09T06:36:35.707Z,8.50
2022-12-09T06:38:39.424Z,8.13
2022-12-09T06:40:45.316Z,7.47
2022-12-09T06:42:50.580Z,7.82
2022-12-09T06:44:53.961Z,7.35
2022-12-09T06:46:57.832Z,7.60
2022-12-09T06:49:01.782Z,7.47
2022-12-09T06:51:05.627Z,7.47
2022-12-09T06:53:09.553Z,7.18
2022-12-09T06:55:13.576Z,6.95
2022-12-09T06:57:19.002Z,6.28
2022-12-09T06:59:22.305Z,7.72
2022-12-09T07:01:26.889Z,6.70
2022-12-09T07:03:30.725Z,7.57
2022-12-09T07:05:34.349Z,7.15
2022-12-09T07:07:38.092Z,6.95
2022-12-09T07:09:41.920Z,6.75
2022-12-09T07:11:47.287Z,7.28
2022-12-09T07:13:54.263Z,7.28
2022-12-09T07:15:57.609Z,6.97
2022-12-09T07:18:01.170Z,7.22
2022-12-09T07:20:07.522Z,8.32
2022-12-09T07:22:12.075Z,8.85
2022-12-09T07:24:15.635Z,7.93
2022-12-09T07:26:20.719Z,7.80
2022-12-09T07:28:24.398Z,7.18
2022-12-09T07:30:29.355Z,6.72
2022-12-09T07:32:33.080Z,7.82
2022-12-09T07:34:36.677Z,7.53
2022-12-09T07:36:40.712Z,8.65
2022-12-09T07:38:44.520Z,9.10
2022-12-09T07:40:48.013Z,9.73
2022-12-09T07:42:56.148Z,9.20
2022-12-09T07:45:02.404Z,9.00
2022-12-09T07:47:07.105Z,9.10
2022-12-09T07:49:12.734Z,8.98
2022-12-09T07:51:16.984Z,7.60
2022-12-09T07:53:20.521Z,8.05
2022-12-09T07:55:24.058Z,8.57
2022-12-09T07:57:27.889Z,9.10
2022-12-09T07:59:31.332Z,8.50
2022-12-09T08:01:35.147Z,9.00
2022-12-09T08:03:42.403Z,9.05
2022-12-09T08:05:49.863Z,8.20
2022-12-09T08:07:53.556Z,9.55
2022-12-09T08:09:57.292Z,10.00
2022-12-09T08:12:01.116Z,10.98
2022-12-09T08:14:12.509Z,9.45
2022-12-09T08:16:19.605Z,10.13
2022-12-09T08:18:23.091Z,10.30
2022-12-09T08:20:29.645Z,9.70
2022-12-09T08:22:35.566Z,8.68
2022-12-09T08:24:39.162Z,10.07
2022-12-09T08:26:43.310Z,9.23
2022-12-09T08:28:47.642Z,9.57
2022-12-09T08:30:51.374Z,9.80
2022-12-09T08:32:54.824Z,8.23
2022-12-09T08:34:58.366Z,9.48
2022-12-09T08:37:03.190Z,9.18
2022-12-09T08:39:07.761Z,9.10
2022-12-09T08:41:14.159Z,7.93
2022-12-09T08:43:17.870Z,10.10
2022-12-09T08:45:21.313Z,9.15
2022-12-09T08:47:24.613Z,9.43
2022-12-09T08:49:29.818Z,9.25
2022-12-09T08:51:35.002Z,9.02
2022-12-09T08:53:40.741Z,9.30
2022-12-09T08:55:44.340Z,9.40
2022-12-09T08:57:47.707Z,8.82
2022-12-09T08:59:51.178Z,8.38
2022-12-09T09:01:54.776Z,10.50
2022-12-09T09:03:58.928Z,8.27
2022-12-09T09:06:09.593Z,8.88
2022-12-09T09:08:14.278Z,8.85
2022-12-09T09:10:19.428Z,8.70
2022-12-09T09:12:22.840Z,8.52
2022-12-09T09:14:26.328Z,8.57
2022-12-09T09:16:29.831Z,8.85
2022-12-09T09:18:33.431Z,9.13
2022-12-09T09:20:37.144Z,9.80
2022-12-09T09:22:40.440Z,9.65
2022-12-09T09:24:44.336Z,8.82
2022-12-09T09:26:50.903Z,8.95
2022-12-09T09:28:55.176Z,9.10
2022-12-09T09:31:02.645Z,8.82
2022-12-09T09:33:06.158Z,10.02
2022-12-09T09:35:10.271Z,9.30
2022-12-09T09:37:13.572Z,9.63
2022-12-09T09:39:16.787Z,9.98
2022-12-09T09:41:30.026Z,9.65
2022-12-09T09:43:38.354Z,11.05
2022-12-09T09:45:41.823Z,12.90
2022-12-09T09:47:50.228Z,12.20
2022-12-09T09:49:59.622Z,13.65
2022-12-09T09:52:08.765Z,12.30
2022-12-09T09:54:15.324Z,10.02
2022-12-09T09:56:27.879Z,11.00
2022-12-09T09:58:42.891Z,12.43
2022-12-09T10:01:00.246Z,10.93
2022-12-09T10:03:11.090Z,12.63
2022-12-09T10:05:24.085Z,13.95
2022-12-09T10:07:43.379Z,10.65
2022-12-09T10:09:58.951Z,10.63
2022-12-09T10:12:14.360Z,9.52
2022-12-09T10:14:27.441Z,9.75
2022-12-09T10:16:43.630Z,9.00
2022-12-09T10:19:07.962Z,9.73
2022-12-09T10:21:18.023Z,9.05
2022-12-09T10:23:22.718Z,9.93
2022-12-09T10:25:29.184Z,9.98
2022-12-09T10:27:38.404Z,9.90
2022-12-09T10:29:56.620Z,9.20
2022-12-09T10:32:00.970Z,9.82
2022-12-09T10:34:04.699Z,10.30
2022-12-09T10:36:21.428Z,9.70
2022-12-09T10:38:26.818Z,9.63
2022-12-09T10:40:38.812Z,8.60
2022-12-09T10:43:05.680Z,9.80
2022-12-09T10:45:12.244Z,8.88
2022-12-09T10:47:27.162Z,9.73
2022-12-09T10:49:32.097Z,9.88
2022-12-09T10:51:37.420Z,9.35
2022-12-09T10:53:48.698Z,9.70
2022-12-09T10:55:55.468Z,9.80
2022-12-09T10:58:18.933Z,9.95
2022-12-09T11:00:34.452Z,10.25
2022-12-09T11:02:38.319Z,10.27
2022-12-09T11:04:44.186Z,9.30
2022-12-09T11:06:51.665Z,11.65
2022-12-09T11:09:01.153Z,11.30
2022-12-09T11:11:04.605Z,10.15
2022-12-09T11:13:11.694Z,11.60
2022-12-09T11:15:32.467Z,11.43
2022-12-09T11:17:39.143Z,11.02
2022-12-09T11:19:43.542Z,10.60
2022-12-09T11:21:47.030Z,11.52
2022-12-09T11:24:02.456Z,11.15
2022-12-09T11:26:12.328Z,12.55
2022-12-09T11:28:27.660Z,16.10
2022-12-09T11:30:36.616Z,13.50
2022-12-09T11:32:59.026Z,10.95
2022-12-09T11:35:03.121Z,11.60
2022-12-09T11:37:06.707Z,11.85
2022-12-09T11:39:20.818Z,12.07
2022-12-09T11:41:43.482Z,10.85
2022-12-09T11:43:51.396Z,12.60
2022-12-09T11:45:55.944Z,10.82
2022-12-09T11:48:27.899Z,10.70
2022-12-09T11:50:33.735Z,11.13
2022-12-09T11:52:36.924Z,12.50
2022-12-09T11:54:48.392Z,22.05
2022-12-09T11:56:53.002Z,11.90
2022-12-09T11:59:02.018Z,12.32
2022-12-09T12:01:13.671Z,11.90
2022-12-09T12:03:23.635Z,11.50
2022-12-09T12:05:34.045Z,11.02
2022-12-09T12:07:48.198Z,11.10
2022-12-09T12:09:55.559Z,12.05
2022-12-09T12:12:15.770Z,10.55
2022-12-09T12:14:25.820Z,11.63
2022-12-09T12:16:39.670Z,11.60
2022-12-09T12:18:48.889Z,12.55
2022-12-09T12:37:33.669Z,12.98
2022-12-09T12:40:10.113Z,11.50
2022-12-09T12:42:22.563Z,12.90
2022-12-09T12:44:56.012Z,12.38
2022-12-09T12:47:05.666Z,13.00
2022-12-09T12:49:20.688Z,14.05
2022-12-09T12:51:30.502Z,13.77
2022-12-09T12:53:38.932Z,14.55
2022-12-09T12:55:50.295Z,15.27
2022-12-09T12:57:59.034Z,13.32
2022-12-09T13:00:07.245Z,14.30
2022-12-09T13:02:24.399Z,13.90
2022-12-09T13:04:32.535Z,13.55
2022-12-09T13:06:42.475Z,13.70
2022-12-09T13:08:48.376Z,13.77
2022-12-09T13:10:54.213Z,13.02
2022-12-09T13:12:58.531Z,14.68
2022-12-09T13:15:01.285Z,12.95
2022-12-09T13:17:07.603Z,14.45
2022-12-09T13:19:25.559Z,21.48
2022-12-09T13:21:28.232Z,13.32
2022-12-09T13:23:44.824Z,15.38
2022-12-09T13:25:53.743Z,15.25
2022-12-09T13:28:01.232Z,15.35
2022-12-09T13:30:06.965Z,14.77
2022-12-09T13:32:21.375Z,14.60
2022-12-09T13:34:30.412Z,13.75
2022-12-09T13:36:37.574Z,14.57
2022-12-09T13:38:42.416Z,15.38
2022-12-09T13:40:45.121Z,16.52
2022-12-09T13:42:56.564Z,18.20
2022-12-09T13:45:05.339Z,17.50
2022-12-09T13:47:28.075Z,15.65
2022-12-09T13:49:30.755Z,16.27
2022-12-09T13:51:45.053Z,17.35
2022-12-09T13:53:52.013Z,17.83
2022-12-09T13:55:57.364Z,16.73
2022-12-09T13:58:12.574Z,19.83
2022-12-09T14:00:17.818Z,16.55
2022-12-09T14:02:27.063Z,16.42
2022-12-09T14:04:31.758Z,16.02
2022-12-09T14:06:39.510Z,17.45
2022-12-09T14:08:47.838Z,21.02
2022-12-09T14:10:52.146Z,18.95
2022-12-09T14:13:22.508Z,18.15
2022-12-09T14:15:37.478Z,19.30
2022-12-09T14:17:59.886Z,16.52
2022-12-09T14:20:12.957Z,18.02
2022-12-09T14:22:35.672Z,16.50
2022-12-09T14:24:38.641Z,17.20
2022-12-09T14:26:45.589Z,17.45
2022-12-09T14:28:55.102Z,20.50
2022-12-09T14:31:03.398Z,18.75
2022-12-09T14:33:22.138Z,16.48
2022-12-09T14:35:29.979Z,16.55
2022-12-09T14:37:55.424Z,16.88
2022-12-09T14:40:03.303Z,16.52
2022-12-09T14:42:10.620Z,18.13
2022-12-09T14:44:20.949Z,17.80
2022-12-09T14:46:27.096Z,18.25
2022-12-09T14:48:32.589Z,18.73
2022-12-09T14:50:38.435Z,19.13
2022-12-09T14:52:50.965Z,17.38
2022-12-09T14:54:55.119Z,17.33
2022-12-09T14:57:01.168Z,16.60
2022-12-09T14:59:06.977Z,17.05
2022-12-09T15:01:11.320Z,16.98
2022-12-09T15:03:39.509Z,17.85
2022-12-09T15:05:41.319Z,18.27
2022-12-09T15:07:45.786Z,19.67
2022-12-09T15:09:50.355Z,18.88
2022-12-09T15:11:53.093Z,17.52
2022-12-09T15:14:17.458Z,17.02
2022-12-09T15:16:23.888Z,17.23
2022-12-09T15:18:26.922Z,17.75
2022-12-09T15:20:31.113Z,20.08
2022-12-09T15:22:34.326Z,20.33
2022-12-09T15:24:49.638Z,20.02
2022-12-09T15:26:58.593Z,19.23
2022-12-09T15:29:05.097Z,18.75
2022-12-09T15:31:18.337Z,18.52
2022-12-09T15:33:22.775Z,17.38
2022-12-09T15:35:28.219Z,18.88
2022-12-09T15:37:31.314Z,18.60
2022-12-09T15:39:39.770Z,19.63
2022-12-09T15:42:01.971Z,19.63
2022-12-09T15:44:08.651Z,20.40
2022-12-09T15:46:12.101Z,19.63
2022-12-09T15:48:18.946Z,19.00
2022-12-09T15:50:26.306Z,18.98
2022-12-09T15:53:18.796Z,17.80
2022-12-09T15:56:57.784Z,18.95
2022-12-09T15:59:06.257Z,18.75
2022-12-09T16:01:09.144Z,18.95
2022-12-09T16:03:11.867Z,19.80
2022-12-09T16:05:14.590Z,18.40
2022-12-09T16:07:20.042Z,18.83
2022-12-09T16:09:22.954Z,18.70
2022-12-09T16:11:39.169Z,19.38
2022-12-09T16:14:01.209Z,21.20
2022-12-09T16:16:24.844Z,20.00
2022-12-09T16:18:31.256Z,20.42
2022-12-09T16:20:40.140Z,18.88
2022-12-09T16:22:45.504Z,18.50
2022-12-09T16:25:14.293Z,17.33
2022-12-09T16:27:18.597Z,17.65
2022-12-09T16:29:26.693Z,17.85
2022-12-09T16:31:30.176Z,18.55
2022-12-09T16:33:36.911Z,18.45
2022-12-09T16:35:42.820Z,17.92
2022-12-09T16:38:17.355Z,18.50
2022-12-09T16:40:52.801Z,18.17
2022-12-09T16:42:56.788Z,16.65
2022-12-09T16:45:22.842Z,19.15
2022-12-09T16:47:27.437Z,19.20
2022-12-09T16:49:30.125Z,19.17
2022-12-09T16:51:33.095Z,19.67
2022-12-09T16:53:42.503Z,19.13
2022-12-09T16:55:50.964Z,19.38
2022-12-09T16:57:54.101Z,19.00
2022-12-09T16:59:56.801Z,18.65
2022-12-09T17:02:00.201Z,19.45
2022-12-09T17:04:05.248Z,19.63
2022-12-09T17:06:08.717Z,18.77
2022-12-09T17:08:11.448Z,19.13
2022-12-09T17:10:16.745Z,18.02
2022-12-09T17:12:19.484Z,20.15
2022-12-09T17:14:22.189Z,20.20
2022-12-09T17:16:26.638Z,20.88
2022-12-09T17:18:30.219Z,20.60
2022-12-09T17:20:32.965Z,20.90
2022-12-09T17:22:35.732Z,20.25
2022-12-09T17:24:38.630Z,20.10
2022-12-09T17:26:42.676Z,20.98
2022-12-09T17:28:46.128Z,20.02
2022-12-09T17:30:48.834Z,20.15
2022-12-09T17:32:51.578Z,21.00
2022-12-09T17:34:54.525Z,19.95
2022-12-09T17:36:58.341Z,19.90
2022-12-09T17:39:02.220Z,19.77
2022-12-09T17:41:05.674Z,19.48
2022-12-09T17:43:09.900Z,20.00
2022-12-09T17:45:12.610Z,19.48
2022-12-09T17:47:15.318Z,22.13
2022-12-09T17:49:18.635Z,20.83
2022-12-09T17:51:21.391Z,22.83
2022-12-09T17:53:24.632Z,28.67
2022-12-09T17:55:27.372Z,29.92
2022-12-09T17:57:30.293Z,22.35
2022-12-09T17:59:34.374Z,20.70
2022-12-09T18:01:38.336Z,26.80
2022-12-09T18:03:55.606Z,24.20
2022-12-09T18:06:00.170Z,29.77
2022-12-09T18:08:03.137Z,25.50
2022-12-09T18:10:06.931Z,22.38
2022-12-09T18:12:09.829Z,21.52
2022-12-09T18:14:13.009Z,22.33
2022-12-09T18:16:17.135Z,22.13
2022-12-09T18:18:19.893Z,22.50
2022-12-09T18:20:22.622Z,23.45
2022-12-09T18:22:25.374Z,24.05
2022-12-09T18:24:29.411Z,22.15
2022-12-09T18:26:36.639Z,23.55
2022-12-09T18:28:42.679Z,22.08
2022-12-09T18:30:45.458Z,23.58
2022-12-09T18:32:49.622Z,23.40
2022-12-09T18:34:52.378Z,22.52
2022-12-09T18:36:55.532Z,23.27
2022-12-09T18:38:59.716Z,22.75
2022-12-09T18:41:02.493Z,22.90
2022-12-09T18:43:05.261Z,24.45
2022-12-09T18:45:10.564Z,25.58
2022-12-09T18:47:13.427Z,22.88
2022-12-09T18:49:19.625Z,24.00
2022-12-09T18:51:22.792Z,22.35
2022-12-09T18:53:25.650Z,21.73
2022-12-09T18:55:28.416Z,21.50
2022-12-09T18:57:31.212Z,19.48
2022-12-09T18:59:33.948Z,22.38
2022-12-09T19:01:40.401Z,21.15
2022-12-09T19:03:43.513Z,20.75
2022-12-09T19:05:47.607Z,23.00
2022-12-09T19:07:50.424Z,22.80
2022-12-09T19:09:53.167Z,23.17
2022-12-09T19:11:56.003Z,22.70
2022-12-09T19:13:59.301Z,22.13
2022-12-09T19:16:04.956Z,21.25
2022-12-09T19:18:07.699Z,21.88
2022-12-09T19:20:11.620Z,25.50
2022-12-09T19:22:15.933Z,23.17
2022-12-09T19:24:20.563Z,23.30
2022-12-09T19:26:25.698Z,21.95
2022-12-09T19:28:28.431Z,23.73
2022-12-09T19:30:31.181Z,22.48
2022-12-09T19:34:56.656Z,22.80
2022-12-09T19:37:01.389Z,22.50
2022-12-09T19:39:08.241Z,22.60
2022-12-09T19:41:11.330Z,21.45
2022-12-09T19:43:14.048Z,22.95
2022-12-09T19:45:16.943Z,22.55
2022-12-09T19:47:19.665Z,21.70
2022-12-09T19:49:23.469Z,23.67
2022-12-09T19:51:27.250Z,24.30
2022-12-09T19:53:30.001Z,23.77
2022-12-09T19:55:35.429Z,25.38
2022-12-09T19:57:38.191Z,23.42
2022-12-09T19:59:40.917Z,25.52
2022-12-09T20:01:45.449Z,23.27
2022-12-09T20:03:50.324Z,23.73
2022-12-09T20:05:55.739Z,23.85
2022-12-09T20:07:58.532Z,26.77
2022-12-09T20:10:01.403Z,24.88
2022-12-09T20:12:05.932Z,33.50
2022-12-09T20:14:09.793Z,28.15
2022-12-09T20:16:14.934Z,24.77
2022-12-09T20:18:17.684Z,26.88
2022-12-09T20:20:20.386Z,25.02
2022-12-09T20:22:23.121Z,28.73
2022-12-09T20:24:26.722Z,29.75
2022-12-09T20:26:31.154Z,27.33
2022-12-09T20:28:35.894Z,25.27
2022-12-09T20:30:38.577Z,26.60
2022-12-09T20:32:41.377Z,25.23
2022-12-09T20:34:44.056Z,26.25
2022-12-09T20:36:47.237Z,26.45
2022-12-09T20:38:51.870Z,25.27
2022-12-09T20:40:55.067Z,26.02
2022-12-09T20:42:57.765Z,25.85
2022-12-09T20:45:01.802Z,25.85
2022-12-09T20:47:04.611Z,24.58
2022-12-09T20:49:07.325Z,26.65
2022-12-09T20:51:11.872Z,26.95
2022-12-09T20:53:14.601Z,29.83
2022-12-09T20:55:17.783Z,30.38
2022-12-09T20:57:20.498Z,29.63
2022-12-09T20:59:23.270Z,30.13
2022-12-09T21:01:29.255Z,29.23
2022-12-09T21:03:31.991Z,26.50
2022-12-09T21:05:34.705Z,28.25
2022-12-09T21:07:37.469Z,27.58
2022-12-09T21:09:40.395Z,30.05
2022-12-09T21:11:43.125Z,30.23
2022-12-09T21:13:47.181Z,30.27
2022-12-09T21:15:49.840Z,32.22
2022-12-09T21:17:54.970Z,35.65
2022-12-09T21:19:57.588Z,33.33
2022-12-09T21:22:00.242Z,32.38
2022-12-09T21:24:03.730Z,33.20
2022-12-09T21:26:08.460Z,32.78
2022-12-09T21:28:11.068Z,30.10
2022-12-09T21:30:14.040Z,33.05
2022-12-09T21:32:16.716Z,32.15
2022-12-09T21:34:24.077Z,31.73
2022-12-09T21:36:28.314Z,31.25
2022-12-09T21:38:31.638Z,31.45
2022-12-09T21:40:34.369Z,31.98
2022-12-09T21:42:37.127Z,31.50
2022-12-09T21:44:40.997Z,32.40
2022-12-09T21:46:44.041Z,32.30
2022-12-09T21:48:51.748Z,32.78
2022-12-09T21:50:56.734Z,32.33
2022-12-09T21:52:59.415Z,31.20
2022-12-09T21:55:02.159Z,31.38
2022-12-09T21:57:04.994Z,30.85
2022-12-09T21:59:08.100Z,30.52
2022-12-09T22:01:12.660Z,32.05
2022-12-09T22:03:15.366Z,31.25
2022-12-09T22:05:18.109Z,33.40
2022-12-09T22:07:22.115Z,38.28
2022-12-09T22:09:24.795Z,33.38
2022-12-09T22:11:29.224Z,32.05
2022-12-09T22:13:34.959Z,33.47
2022-12-09T22:15:43.216Z,33.35
2022-12-09T22:17:45.949Z,34.70
2022-12-09T22:20:06.295Z,33.58
2022-12-09T22:22:11.309Z,34.05
2022-12-09T22:24:15.714Z,34.95
2022-12-09T22:26:21.571Z,35.72
2022-12-09T22:28:24.300Z,45.88
2022-12-09T22:30:27.366Z,37.15
2022-12-09T22:32:30.565Z,35.33
2022-12-09T22:34:33.420Z,36.67
2022-12-09T22:36:37.058Z,36.33
2022-12-09T22:38:41.920Z,32.95
2022-12-09T22:40:46.090Z,35.45
2022-12-09T22:42:49.515Z,34.88
2022-12-09T22:44:52.264Z,34.30
2022-12-09T22:46:55.109Z,32.88
2022-12-09T22:48:58.956Z,34.60
2022-12-09T22:51:04.739Z,33.63
2022-12-09T22:53:07.482Z,34.35
2022-12-09T22:55:10.609Z,32.05
2022-12-09T22:57:14.765Z,32.75
2022-12-09T22:59:18.230Z,32.38
2022-12-09T23:01:23.111Z,32.45
2022-12-09T23:03:26.136Z,29.10
2022-12-09T23:05:34.582Z,31.73
2022-12-09T23:07:38.167Z,30.50
2022-12-09T23:09:40.901Z,31.38
2022-12-09T23:11:43.657Z,32.95
2022-12-09T23:13:49.657Z,32.90
2022-12-09T23:15:52.491Z,34.70
2022-12-09T23:17:55.714Z,36.05
2022-12-09T23:19:58.383Z,33.33
2022-12-09T23:22:01.066Z,33.00
2022-12-09T23:24:06.613Z,34.65
2022-12-09T23:26:11.016Z,33.05
2022-12-09T23:28:13.717Z,30.10
2022-12-09T23:30:17.982Z,31.35
2022-12-09T23:32:20.737Z,29.52
2022-12-09T23:34:23.652Z,30.88
2022-12-09T23:36:30.902Z,29.92
2022-12-09T23:38:33.740Z,30.05
2022-12-09T23:40:36.450Z,28.52
2022-12-09T23:42:39.164Z,27.23
2022-12-09T23:44:42.114Z,27.75
2022-12-09T23:46:46.509Z,26.40
2022-12-09T23:48:50.212Z,28.15
2022-12-09T23:50:53.873Z,30.42
2022-12-09T23:52:56.528Z,31.52
2022-12-09T23:55:04.082Z,28.13
2022-12-09T23:57:07.340Z,27.50
2022-12-09T23:59:13.074Z,26.40
